Accueil
METAR-TAF:

METAR-TAF

Aéroports :

De Queen, Arkansas, États-Unis

latitude: 34-02-49N, longitude: 094-23-58W, altitude: 108 m

Observation

Le bulletin a été fait il y a 27 minutes, à 15:53 UTC
Vent calme
Température 6°C
Humidité 70%
Pression 1026 hPa
Visibilité: 16.1 km
Nuages fragmentés à une hauteur de 4600 ft

METAR: KDEQ 141553Z AUTO 00000KT 10SM BKN046 06/01 A3030 RMK AO2 SLP261 T00610011

Heure: 10:20 (16:20 UTC)


TAF: absent

Observations et prévisions météorologiques de plus de 4000 aéroports (messages METAR et TAF).

Les stations disponibles sont représentées par des disques jaunes et rouges sur la carte.

Passer la souris dessus pour voir le nom de la station.

Cliquer dessus pour voir les observations et prévisions météorologiques.

Pour changer de carte: cliquez sur les boutons verts avec une croix noire pour zoomer, sur le bouton vert avec un tiret pour effectuer un zoom arrière, ou sur les flèches vertes pour les cartes adjacentes.


METAR-TAF: